Time;durP1;ratioP1;P1;durP2;ratioP2;P2;SDS_P1;SDS_P2;PMS_P1;PMS_P2;Temp;Humidity;BMP_temperature;BMP_pressure;BME280_temperature;BME280_humidity;BME280_pressure;Samples;Min_cycle;Max_cycle;Signal;HPM_P1;HPM_P2
2022/12/30 00:00:55;;;;;;;45.95;29.15;;;282.20;2278.40;;;;;;5092304;28;20351;-59
2022/12/30 00:03:21;;;;;;;30.70;19.63;;;282.30;2278.40;;;;;;5092185;28;20116;-58
2022/12/30 00:05:47;;;;;;;42.58;26.30;;;282.30;2278.40;;;;;;5092429;28;20044;-66
2022/12/30 00:10:57;;;;;;;15.18;9.05;;;282.40;2278.40;;;;;;5091890;28;20047;-64
2022/12/30 00:33:31;;;;;;;66.25;41.17;;;307.60;2304.00;;;;;;5029671;28;20100;-59
2022/12/30 00:35:58;;;;;;;33.47;20.77;;;307.60;2304.00;;;;;;5029991;28;20194;-59
2022/12/30 00:38:24;;;;;;;62.10;33.58;;;307.60;2304.00;;;;;;5029965;28;20045;-62
2022/12/30 00:43:34;;;;;;;14.48;10.00;;;307.70;2304.00;;;;;;5029983;28;20466;-61
2022/12/30 00:46:00;;;;;;;23.05;14.23;;;307.80;2304.00;;;;;;5029377;28;20033;-60
2022/12/30 00:56:42;;;;;;;107.32;61.65;;;281.90;2278.40;;;;;;5083726;28;20036;-60
2022/12/30 00:59:08;;;;;;;102.28;59.55;;;281.90;2278.40;;;;;;5092374;28;20028;-59
2022/12/30 01:01:33;;;;;;;80.25;50.00;;;282.00;2278.40;;;;;;5092534;28;20424;-65
2022/12/30 01:03:59;;;;;;;65.07;40.65;;;281.80;2278.40;;;;;;5091802;28;20028;-59
2022/12/30 01:06:25;;;;;;;50.38;32.70;;;281.90;2278.40;;;;;;5092419;28;20031;-64
2022/12/30 01:08:50;;;;;;;64.95;42.00;;;281.70;2278.40;;;;;;5092499;28;20032;-59
2022/12/30 01:11:16;;;;;;;61.17;40.55;;;256.80;2252.80;;;;;;5092711;28;20016;-66
2022/12/30 01:13:42;;;;;;;39.55;25.92;;;256.50;2252.80;;;;;;5092422;28;20058;-62
2022/12/30 01:16:13;;;;;;;193.25;125.90;;;256.50;2252.80;;;;;;5091916;28;20031;-58
2022/12/30 01:18:42;;;;;;;115.80;70.32;;;256.70;2252.80;;;;;;5090582;28;20051;-59
2022/12/30 01:21:09;;;;;;;71.38;43.13;;;256.90;2252.80;;;;;;5090174;28;20074;-58
2022/12/30 01:23:35;;;;;;;73.35;45.40;;;256.90;2252.80;;;;;;5090631;28;20025;-65
2022/12/30 01:26:03;;;;;;;69.88;43.67;;;281.60;2278.40;;;;;;5090743;28;20073;-59
2022/12/30 01:28:30;;;;;;;115.20;72.97;;;281.70;2278.40;;;;;;5090633;28;20024;-60
2022/12/30 01:30:57;;;;;;;37.10;23.83;;;281.70;2278.40;;;;;;5090769;28;20031;-64
2022/12/30 01:33:23;;;;;;;37.03;23.45;;;282.00;2278.40;;;;;;5090507;28;20115;-61
2022/12/30 01:35:48;;;;;;;26.33;17.52;;;282.20;2278.40;;;;;;5090405;28;20426;-59
2022/12/30 01:38:15;;;;;;;49.85;32.95;;;282.30;2278.40;;;;;;5090548;28;20081;-63
2022/12/30 01:40:42;;;;;;;47.78;30.35;;;282.30;2278.40;;;;;;5090232;28;20432;-60
2022/12/30 01:43:13;;;;;;;65.43;40.35;;;282.20;2278.40;;;;;;5090324;28;20112;-64
2022/12/30 01:45:40;;;;;;;68.20;38.95;;;281.80;2278.40;;;;;;5090365;28;20016;-60
2022/12/30 01:48:23;;;;;;;51.50;32.47;;;281.70;2278.40;;;;;;5090499;28;20027;-62
2022/12/30 01:51:01;;;;;;;41.05;26.13;;;281.60;2278.40;;;;;;5090533;28;20024;-63
2022/12/30 01:53:31;;;;;;;38.03;25.05;;;256.90;2252.80;;;;;;5090297;28;20119;-60
2022/12/30 01:56:04;;;;;;;32.35;20.77;;;256.90;2252.80;;;;;;5090317;28;20470;-66
2022/12/30 01:58:51;;;;;;;31.63;20.70;;;256.80;2252.80;;;;;;5090085;28;20371;-61
2022/12/30 02:01:18;;;;;;;28.38;18.77;;;256.90;2252.80;;;;;;5090385;28;20069;-61
2022/12/30 02:03:48;;;;;;;79.45;52.00;;;281.70;2278.40;;;;;;5090333;28;20032;-65
2022/12/30 02:06:18;;;;;;;32.38;19.85;;;281.70;2278.40;;;;;;5090054;28;20020;-67
2022/12/30 02:08:43;;;;;;;40.25;24.35;;;281.70;2278.40;;;;;;5090028;28;20028;-65
2022/12/30 02:11:09;;;;;;;23.05;14.90;;;281.70;2278.40;;;;;;5089929;28;20492;-61
2022/12/30 02:13:35;;;;;;;13.30;8.55;;;281.70;2278.40;;;;;;5090144;28;20036;-66
2022/12/30 02:16:10;;;;;;;26.00;16.92;;;281.90;2278.40;;;;;;5089925;28;20016;-60
2022/12/30 02:19:11;;;;;;;21.45;13.35;;;281.90;2278.40;;;;;;5090604;28;20016;-65
2022/12/30 02:21:42;;;;;;;21.15;15.45;;;281.90;2278.40;;;;;;5007811;28;20172;-60
2022/12/30 02:24:07;;;;;;;23.73;17.73;;;281.70;2278.40;;;;;;5007972;28;20473;-66
2022/12/30 02:26:41;;;;;;;23.25;17.17;;;281.60;2278.40;;;;;;5007862;28;20084;-66
2022/12/30 02:29:30;;;;;;;22.05;15.50;;;281.60;2278.40;;;;;;5008011;28;20026;-66
2022/12/30 02:32:07;;;;;;;49.35;27.45;;;281.70;2278.40;;;;;;5008011;28;20057;-66
2022/12/30 02:34:55;;;;;;;14.57;7.40;;;281.70;2278.40;;;;;;5011240;28;20026;-66
2022/12/30 02:37:45;;;;;;;27.92;17.48;;;281.90;2278.40;;;;;;5011829;28;20109;-57
2022/12/30 02:40:16;;;;;;;25.40;14.25;;;281.90;2278.40;;;;;;5011535;28;20042;-58
2022/12/30 02:45:46;;;;;;;25.33;16.92;;;281.70;2278.40;;;;;;5012103;28;20053;-58
2022/12/30 02:48:20;;;;;;;17.65;10.55;;;281.70;2278.40;;;;;;5011523;28;20109;-59
2022/12/30 02:53:33;;;;;;;35.20;21.75;;;281.70;2278.40;;;;;;5011370;28;19923;-59
2022/12/30 02:55:59;;;;;;;40.15;25.65;;;281.60;2278.40;;;;;;5011456;28;20576;-59
2022/12/30 02:58:29;;;;;;;26.23;16.27;;;256.90;2252.80;;;;;;5069995;28;20032;-60
2022/12/30 03:04:28;;;;;;;23.48;15.82;;;256.70;2252.80;;;;;;5093230;28;20121;-59
2022/12/30 03:07:22;;;;;;;28.92;17.13;;;256.70;2252.80;;;;;;5093391;28;20473;-59
2022/12/30 03:13:16;;;;;;;31.92;19.00;;;256.70;2252.80;;;;;;5093561;28;20387;-59
2022/12/30 03:15:44;;;;;;;39.90;22.35;;;256.60;2252.80;;;;;;5092781;28;20115;-64
2022/12/30 03:18:11;;;;;;;30.90;19.98;;;256.50;2252.80;;;;;;5092821;28;20036;-59
2022/12/30 03:20:40;;;;;;;33.03;20.70;;;256.60;2252.80;;;;;;5093025;28;20073;-59
2022/12/30 03:28:40;;;;;;;36.63;24.80;;;256.30;2252.80;;;;;;5093356;28;20035;-59
2022/12/30 03:31:10;;;;;;;31.17;21.00;;;256.20;2252.80;;;;;;5093085;28;20096;-58
2022/12/30 03:33:37;;;;;;;35.42;23.25;;;256.30;2252.80;;;;;;5092960;28;20028;-59
2022/12/30 03:36:13;;;;;;;25.45;18.10;;;256.20;2252.80;;;;;;5092643;28;20016;-58
2022/12/30 03:38:46;;;;;;;60.58;37.38;;;256.30;2252.80;;;;;;5092427;28;20031;-58
2022/12/30 03:41:12;;;;;;;41.95;24.95;;;256.20;2252.80;;;;;;5092551;28;20024;-59
2022/12/30 03:43:40;;;;;;;39.63;26.13;;;256.30;2252.80;;;;;;5092335;28;20044;-59
2022/12/30 03:46:06;;;;;;;44.67;26.73;;;256.20;2252.80;;;;;;5091782;28;20016;-59
2022/12/30 03:48:33;;;;;;;74.90;49.47;;;256.00;2252.80;;;;;;5092288;28;20405;-59
2022/12/30 03:50:59;;;;;;;45.38;29.30;;;231.30;2252.80;;;;;;5092580;28;20020;-60
2022/12/30 03:53:24;;;;;;;44.08;28.63;;;231.30;2252.80;;;;;;5092652;28;20085;-66
2022/12/30 03:55:51;;;;;;;44.67;26.92;;;231.20;2252.80;;;;;;5092355;28;20432;-59
2022/12/30 03:58:17;;;;;;;44.00;28.02;;;231.30;2252.80;;;;;;5092627;28;20039;-59
2022/12/30 04:00:43;;;;;;;41.72;24.45;;;231.30;2252.80;;;;;;5092398;28;20012;-58
2022/12/30 04:03:08;;;;;;;23.48;14.40;;;231.20;2252.80;;;;;;5092420;28;20032;-59
2022/12/30 04:05:35;;;;;;;40.92;26.88;;;256.00;2252.80;;;;;;5092261;28;20032;-63
2022/12/30 04:08:00;;;;;;;111.35;69.13;;;256.00;2252.80;;;;;;5092264;28;20131;-58
2022/12/30 04:10:26;;;;;;;78.38;46.63;;;256.10;2252.80;;;;;;5092098;28;20483;-59
2022/12/30 04:12:52;;;;;;;59.00;35.58;;;256.00;2252.80;;;;;;5090653;28;20047;-58
2022/12/30 04:15:17;;;;;;;41.97;27.73;;;256.20;2252.80;;;;;;5092500;28;20037;-59
2022/12/30 04:17:43;;;;;;;28.38;17.58;;;256.20;2252.80;;;;;;5092192;28;20370;-59
2022/12/30 04:20:09;;;;;;;28.88;17.02;;;256.10;2252.80;;;;;;5091773;28;20148;-59
2022/12/30 04:22:35;;;;;;;27.80;16.95;;;256.10;2252.80;;;;;;5091929;28;20028;-62
2022/12/30 04:25:00;;;;;;;17.75;11.48;;;256.10;2252.80;;;;;;5091794;28;20035;-59
2022/12/30 04:27:26;;;;;;;14.40;8.82;;;256.10;2252.80;;;;;;5091674;28;20051;-62
2022/12/30 04:29:52;;;;;;;42.42;23.60;;;256.20;2252.80;;;;;;5091564;28;20036;-60
2022/12/30 04:32:18;;;;;;;13.27;9.40;;;256.20;2252.80;;;;;;5091869;28;20032;-62
2022/12/30 04:34:43;;;;;;;10.68;6.80;;;256.50;2252.80;;;;;;5091694;28;20028;-59
2022/12/30 04:37:09;;;;;;;10.10;7.20;;;256.50;2252.80;;;;;;5091466;28;20024;-59
2022/12/30 04:39:34;;;;;;;16.33;10.55;;;256.70;2252.80;;;;;;5091767;28;20020;-58
2022/12/30 04:42:00;;;;;;;11.00;6.60;;;256.80;2252.80;;;;;;5091285;28;20073;-58
2022/12/30 04:44:26;;;;;;;12.50;9.25;;;256.80;2252.80;;;;;;5091566;28;20482;-58
2022/12/30 04:46:51;;;;;;;11.05;6.85;;;256.70;2252.80;;;;;;5091400;28;20039;-58
2022/12/30 04:49:17;;;;;;;13.35;9.57;;;256.70;2252.80;;;;;;5091644;28;20099;-58
2022/12/30 04:51:43;;;;;;;15.60;9.27;;;256.50;2252.80;;;;;;5091061;28;20035;-66
2022/12/30 04:54:08;;;;;;;13.27;9.70;;;256.30;2252.80;;;;;;5091448;28;20051;-62
2022/12/30 04:56:34;;;;;;;28.30;14.57;;;256.20;2252.80;;;;;;5091187;28;20016;-59
2022/12/30 04:59:00;;;;;;;128.57;78.40;;;256.20;2252.80;;;;;;5091107;28;20039;-60
2022/12/30 05:01:26;;;;;;;23.73;12.80;;;256.30;2252.80;;;;;;5091561;28;20485;-63
2022/12/30 05:03:52;;;;;;;42.92;27.92;;;256.40;2252.80;;;;;;5091325;28;20028;-59
2022/12/30 05:06:17;;;;;;;225.55;137.85;;;256.50;2252.80;;;;;;5091073;28;20440;-67
2022/12/30 05:08:43;;;;;;;53.70;33.92;;;256.50;2252.80;;;;;;5090827;28;20016;-66
2022/12/30 05:11:09;;;;;;;28.58;18.48;;;256.50;2252.80;;;;;;5090755;28;20040;-60
2022/12/30 05:13:35;;;;;;;13.75;9.38;;;256.30;2252.80;;;;;;5091023;28;20057;-66
2022/12/30 05:16:00;;;;;;;25.65;17.30;;;256.40;2252.80;;;;;;5090881;28;20103;-60
2022/12/30 05:18:26;;;;;;;24.45;13.38;;;256.30;2252.80;;;;;;5091047;28;20469;-66
2022/12/30 05:20:52;;;;;;;29.35;16.48;;;256.10;2252.80;;;;;;5089574;28;20024;-61
2022/12/30 05:26:13;;;;;;;24.65;14.45;;;256.10;2252.80;;;;;;5091085;28;20081;-67
2022/12/30 05:28:40;;;;;;;24.67;14.68;;;256.10;2252.80;;;;;;5090643;28;20035;-60
2022/12/30 05:31:05;;;;;;;71.85;43.80;;;256.00;2252.80;;;;;;5091014;28;20027;-61
2022/12/30 05:33:31;;;;;;;33.17;19.70;;;256.30;2252.80;;;;;;5090656;28;20389;-62
2022/12/30 05:35:57;;;;;;;17.48;11.80;;;256.40;2252.80;;;;;;5090471;28;20081;-67
2022/12/30 05:38:23;;;;;;;15.23;8.68;;;256.40;2252.80;;;;;;5090137;28;20027;-60
2022/12/30 05:40:50;;;;;;;11.48;6.22;;;256.40;2252.80;;;;;;5090540;28;20028;-61
2022/12/30 05:43:16;;;;;;;9.30;6.30;;;256.50;2252.80;;;;;;5090494;28;20047;-67
2022/12/30 05:45:41;;;;;;;11.40;5.63;;;256.50;2252.80;;;;;;5090386;28;20070;-59
2022/12/30 05:48:07;;;;;;;14.68;9.20;;;256.50;2252.80;;;;;;5090620;28;20030;-59
2022/12/30 05:50:33;;;;;;;41.70;26.90;;;256.50;2252.80;;;;;;5090063;28;20021;-60
2022/12/30 05:52:58;;;;;;;54.90;35.80;;;256.40;2252.80;;;;;;5090297;28;20036;-65
2022/12/30 05:55:24;;;;;;;64.30;41.40;;;256.30;2252.80;;;;;;5090615;28;20016;-66
2022/12/30 05:57:50;;;;;;;39.58;27.27;;;256.10;2252.80;;;;;;5090202;28;20032;-61
2022/12/30 06:00:16;;;;;;;48.20;27.90;;;256.10;2252.80;;;;;;5090230;28;20020;-62
2022/12/30 06:02:41;;;;;;;30.52;17.48;;;256.10;2252.80;;;;;;5090256;28;20077;-60
2022/12/30 06:05:08;;;;;;;38.13;17.83;;;256.00;2252.80;;;;;;5090393;28;20054;-67
2022/12/30 06:07:34;;;;;;;20.83;10.88;;;231.30;2252.80;;;;;;5089521;28;20494;-64
2022/12/30 06:09:59;;;;;;;12.27;7.43;;;256.10;2252.80;;;;;;5090027;28;20055;-59
2022/12/30 06:12:25;;;;;;;14.40;9.18;;;256.20;2252.80;;;;;;5089998;28;20063;-65
2022/12/30 06:14:51;;;;;;;32.00;22.45;;;256.30;2252.80;;;;;;5090396;28;20166;-59
2022/12/30 06:17:16;;;;;;;22.65;17.30;;;256.50;2252.80;;;;;;5090162;28;20048;-60
2022/12/30 06:19:42;;;;;;;12.52;7.80;;;256.60;2252.80;;;;;;5089743;28;20048;-59
2022/12/30 06:22:08;;;;;;;19.85;14.30;;;256.70;2252.80;;;;;;5090158;28;20020;-63
2022/12/30 06:24:33;;;;;;;31.67;21.48;;;256.50;2252.80;;;;;;5089979;28;20462;-61
2022/12/30 06:26:59;;;;;;;24.55;15.20;;;256.50;2252.80;;;;;;5089921;28;20016;-60
2022/12/30 06:29:25;;;;;;;71.70;48.95;;;256.30;2252.80;;;;;;5089900;28;20020;-65
2022/12/30 06:31:50;;;;;;;84.85;58.92;;;256.10;2252.80;;;;;;5090004;28;20028;-62
2022/12/30 06:34:16;;;;;;;55.90;37.47;;;231.30;2252.80;;;;;;5089907;28;20031;-59
2022/12/30 06:36:42;;;;;;;59.22;39.63;;;231.20;2252.80;;;;;;5089547;28;20028;-64
2022/12/30 06:39:07;;;;;;;69.72;44.78;;;231.20;2252.80;;;;;;5089829;28;20028;-65
2022/12/30 06:41:33;;;;;;;86.88;53.85;;;231.30;2252.80;;;;;;5089699;28;20055;-59
2022/12/30 06:43:59;;;;;;;173.60;112.45;;;231.30;2252.80;;;;;;5089846;28;20086;-58
2022/12/30 06:46:24;;;;;;;84.95;56.22;;;231.30;2252.80;;;;;;5090102;28;20028;-67
2022/12/30 06:48:50;;;;;;;102.85;68.13;;;231.30;2252.80;;;;;;5089540;28;20458;-59
2022/12/30 06:51:16;;;;;;;129.43;85.60;;;231.00;2252.80;;;;;;5089961;28;20072;-67
2022/12/30 06:53:41;;;;;;;123.70;80.85;;;230.70;2252.80;;;;;;5089536;28;20043;-64
2022/12/30 06:56:07;;;;;;;117.10;77.15;;;230.60;2252.80;;;;;;5089990;28;20059;-67
2022/12/30 06:58:33;;;;;;;123.00;89.07;;;230.60;2252.80;;;;;;5089817;28;20028;-60
2022/12/30 07:00:59;;;;;;;115.22;78.53;;;230.80;2252.80;;;;;;5089828;28;20485;-62
2022/12/30 07:03:25;;;;;;;159.88;108.28;;;230.90;2252.80;;;;;;5089993;28;20031;-58
2022/12/30 07:05:50;;;;;;;133.98;94.57;;;230.90;2252.80;;;;;;5089730;28;20492;-65
2022/12/30 07:08:16;;;;;;;140.60;100.35;;;231.10;2252.80;;;;;;5089729;28;20085;-69
2022/12/30 07:10:42;;;;;;;124.22;88.28;;;231.30;2252.80;;;;;;5089491;28;20111;-61
2022/12/30 07:13:10;;;;;;;99.03;69.22;;;256.20;2252.80;;;;;;5089513;28;20032;-61
2022/12/30 07:15:35;;;;;;;63.65;45.45;;;256.40;2252.80;;;;;;5089653;28;20069;-61
2022/12/30 07:18:01;;;;;;;57.83;40.67;;;256.70;2252.80;;;;;;5089451;28;20424;-62
2022/12/30 07:20:27;;;;;;;53.35;39.50;;;281.60;2278.40;;;;;;5091281;28;20107;-71
2022/12/30 07:22:52;;;;;;;50.40;38.72;;;281.90;2278.40;;;;;;5093103;28;20412;-68
2022/12/30 07:25:18;;;;;;;70.18;52.20;;;282.00;2278.40;;;;;;5093311;28;20031;-62
2022/12/30 07:27:44;;;;;;;39.30;27.58;;;282.20;2278.40;;;;;;5092853;28;20048;-63
2022/12/30 07:30:11;;;;;;;45.72;32.50;;;282.30;2278.40;;;;;;5092799;28;20020;-62
2022/12/30 07:32:36;;;;;;;34.40;28.23;;;282.50;2278.40;;;;;;5093049;28;20040;-68
2022/12/30 07:35:07;;;;;;;39.78;31.83;;;307.30;2304.00;;;;;;5092787;28;20534;-75
2022/12/30 07:37:33;;;;;;;32.17;26.00;;;307.30;2304.00;;;;;;5092748;28;20028;-74
2022/12/30 07:39:58;;;;;;;38.15;28.98;;;307.40;2304.00;;;;;;5092715;28;20055;-62
2022/12/30 07:42:24;;;;;;;107.10;78.85;;;307.60;2304.00;;;;;;5092701;28;20063;-62
2022/12/30 07:44:50;;;;;;;96.40;70.95;;;307.40;2304.00;;;;;;5092476;28;20052;-63
2022/12/30 07:47:15;;;;;;;43.78;30.90;;;307.40;2304.00;;;;;;5092802;28;20486;-71
2022/12/30 07:49:41;;;;;;;96.55;72.18;;;307.60;2304.00;;;;;;5092287;28;20031;-64
2022/12/30 07:52:07;;;;;;;86.00;69.15;;;307.60;2304.00;;;;;;5092689;28;20039;-75
2022/12/30 07:54:32;;;;;;;85.25;57.90;;;307.60;2304.00;;;;;;5092453;28;20374;-64
2022/12/30 07:56:58;;;;;;;107.18;82.80;;;307.40;2304.00;;;;;;5092562;28;20105;-62
2022/12/30 07:59:24;;;;;;;48.25;35.38;;;307.60;2304.00;;;;;;5092346;28;20028;-61
2022/12/30 08:01:50;;;;;;;37.47;24.42;;;307.80;2304.00;;;;;;5091830;28;20031;-68
2022/12/30 08:04:16;;;;;;;23.83;15.35;;;308.00;2304.00;;;;;;5093021;28;20020;-62
2022/12/30 08:06:41;;;;;;;50.90;33.65;;;308.10;2304.00;;;;;;5091975;28;20081;-63
2022/12/30 08:09:07;;;;;;;35.55;25.10;;;332.80;2329.60;;;;;;5092199;28;20077;-66
2022/12/30 08:11:33;;;;;;;26.92;18.95;;;332.90;2329.60;;;;;;5092088;28;20032;-61
2022/12/30 08:13:59;;;;;;;28.70;21.02;;;333.00;2278.40;;;;;;5092030;28;20036;-72
2022/12/30 08:16:25;;;;;;;26.75;16.27;;;333.10;2304.00;;;;;;5092286;28;20031;-61
2022/12/30 08:18:52;;;;;;;62.28;44.35;;;333.20;2304.00;;;;;;5092280;28;20107;-61
2022/12/30 08:21:17;;;;;;;45.63;35.05;;;333.10;2329.60;;;;;;5092029;28;20018;-63
2022/12/30 08:23:44;;;;;;;47.42;31.02;;;333.20;2304.00;;;;;;5091640;28;20028;-61
2022/12/30 08:26:12;;;;;;;36.97;25.95;;;333.40;2252.80;;;;;;5091824;28;20035;-66
2022/12/30 08:28:38;;;;;;;28.52;21.73;;;358.60;2150.40;;;;;;5091713;28;20112;-64
2022/12/30 08:31:22;;;;;;;27.52;20.05;;;359.10;2099.20;;;;;;5091247;28;20031;-61
2022/12/30 08:33:48;;;;;;;;;;;359.30;2022.40;;;;;;5092232;28;20032;-74
2022/12/30 08:36:17;;;;;;;41.30;30.27;;;359.30;2022.40;;;;;;5091429;28;19998;-61
2022/12/30 08:38:46;;;;;;;46.33;33.13;;;359.30;2022.40;;;;;;5091485;28;20115;-61
2022/12/30 08:41:24;;;;;;;61.75;51.22;;;384.10;2022.40;;;;;;5091371;28;20032;-61
2022/12/30 08:43:51;;;;;;;70.20;55.05;;;384.30;2022.40;;;;;;5090858;28;20684;-74
2022/12/30 08:46:18;;;;;;;47.50;35.28;;;384.90;1996.80;;;;;;5091529;28;20028;-64
2022/12/30 08:48:45;;;;;;;44.42;33.45;;;435.20;1894.40;;;;;;5091530;28;20050;-63
2022/12/30 08:51:11;;;;;;;50.22;40.40;;;435.90;1817.60;;;;;;5091068;28;20024;-61
2022/12/30 08:53:37;;;;;;;72.13;58.00;;;461.20;1792.00;;;;;;5091268;28;20028;-61
2022/12/30 08:56:10;;;;;;;89.05;64.88;;;487.30;1715.20;;;;;;5091044;28;20055;-61
2022/12/30 08:58:36;;;;;;;61.78;53.10;;;537.90;1612.80;;;;;;5091380;28;20098;-61
2022/12/30 09:01:10;;;;;;;60.00;53.78;;;564.00;1510.40;;;;;;5091140;28;20111;-61
2022/12/30 09:03:41;;;;;;;73.03;60.70;;;564.10;1484.80;;;;;;5091241;28;20403;-62
2022/12/30 09:06:08;;;;;;;107.60;86.25;;;563.80;1484.80;;;;;;5090917;28;20016;-61
2022/12/30 09:08:34;;;;;;;39.90;31.20;;;538.30;1510.40;;;;;;5090904;28;20111;-62
2022/12/30 09:11:02;;;;;;;31.63;25.98;;;512.70;1536.00;;;;;;5090759;28;20078;-73
2022/12/30 09:13:29;;;;;;;18.60;14.02;;;512.90;1536.00;;;;;;5091249;28;20041;-61
2022/12/30 09:15:55;;;;;;;19.98;17.02;;;512.70;1536.00;;;;;;5090915;28;20077;-63
2022/12/30 09:18:21;;;;;;;18.85;12.48;;;512.10;1561.60;;;;;;5090849;28;20417;-66
2022/12/30 09:20:47;;;;;;;37.83;26.65;;;487.30;1561.60;;;;;;5090764;28;20490;-61
2022/12/30 09:23:13;;;;;;;18.73;14.27;;;486.90;1587.20;;;;;;5090539;28;20043;-63
2022/12/30 09:25:39;;;;;;;37.47;28.23;;;486.70;1587.20;;;;;;5090505;28;20063;-61
2022/12/30 09:28:05;;;;;;;71.43;51.92;;;486.40;1612.80;;;;;;5090778;28;20470;-62
2022/12/30 09:30:31;;;;;;;32.58;21.92;;;461.70;1638.40;;;;;;5090384;28;20020;-61
2022/12/30 09:32:56;;;;;;;38.38;26.35;;;461.20;1664.00;;;;;;5090578;28;20059;-63
2022/12/30 09:35:22;;;;;;;11.52;8.15;;;461.00;1689.60;;;;;;5090377;28;20024;-62
2022/12/30 09:37:48;;;;;;;25.25;17.52;;;460.80;1715.20;;;;;;5090804;28;20028;-72
2022/12/30 09:40:23;;;;;;;48.95;29.80;;;435.90;1689.60;;;;;;5090394;28;20028;-68
2022/12/30 09:46:02;;;;;;;70.50;41.70;;;435.60;1715.20;;;;;;5090766;28;20100;-63
2022/12/30 09:48:34;;;;;;;48.28;28.70;;;435.40;1740.80;;;;;;5090538;28;20020;-69
2022/12/30 09:51:06;;;;;;;209.43;140.13;;;435.30;1740.80;;;;;;5090103;28;20416;-66
2022/12/30 09:53:42;;;;;;;46.75;33.85;;;435.40;1715.20;;;;;;5090296;28;20036;-65
2022/12/30 09:56:19;;;;;;;22.45;17.27;;;435.30;1740.80;;;;;;5090437;28;20412;-61
2022/12/30 09:58:45;;;;;;;26.90;19.13;;;435.30;1740.80;;;;;;5090449;28;20034;-61
2022/12/30 10:01:41;;;;;;;46.67;35.15;;;435.30;1740.80;;;;;;5090046;28;20024;-61
2022/12/30 10:04:16;;;;;;;32.00;24.75;;;410.50;1766.40;;;;;;5090287;28;20028;-68
2022/12/30 10:07:17;;;;;;;28.50;20.08;;;410.50;1766.40;;;;;;5090245;28;20021;-65
2022/12/30 10:09:55;;;;;;;73.80;41.78;;;410.30;1792.00;;;;;;5089810;28;20493;-62
2022/12/30 10:12:24;;;;;;;107.63;72.20;;;410.40;1766.40;;;;;;5090293;28;20040;-65
2022/12/30 10:15:08;;;;;;;46.28;30.30;;;410.30;1792.00;;;;;;5090349;28;20186;-68
2022/12/30 10:17:52;;;;;;;23.48;17.33;;;410.40;1817.60;;;;;;5090171;28;20351;-61
2022/12/30 10:20:30;;;;;;;53.30;30.75;;;410.50;1817.60;;;;;;5090259;28;20119;-70
2022/12/30 10:22:59;;;;;;;6.40;4.30;;;410.50;1792.00;;;;;;5090221;28;20036;-62
2022/12/30 10:25:29;;;;;;;7.45;4.57;;;410.50;1792.00;;;;;;5090229;28;20097;-61
2022/12/30 10:27:57;;;;;;;49.55;30.25;;;410.50;1792.00;;;;;;5090141;28;20028;-61
2022/12/30 10:30:31;;;;;;;33.33;20.17;;;410.50;1792.00;;;;;;5090142;28;20074;-62
2022/12/30 10:33:02;;;;;;;21.17;14.88;;;410.50;1792.00;;;;;;5090083;28;20070;-67
2022/12/30 10:35:32;;;;;;;19.13;12.25;;;435.30;1766.40;;;;;;5090033;28;20017;-61
2022/12/30 10:38:16;;;;;;;8.00;5.22;;;435.30;1766.40;;;;;;5090053;28;20031;-65
2022/12/30 10:40:56;;;;;;;11.13;7.25;;;435.30;1766.40;;;;;;5089638;28;20076;-72
2022/12/30 10:43:50;;;;;;;15.98;9.40;;;435.50;1740.80;;;;;;5089547;28;20094;-61
2022/12/30 10:46:55;;;;;;;40.53;27.25;;;435.60;1740.80;;;;;;5090091;28;20028;-61
2022/12/30 10:49:52;;;;;;;60.90;37.33;;;435.60;1715.20;;;;;;5089743;28;20032;-61
2022/12/30 10:52:18;;;;;;;66.40;44.50;;;435.80;1689.60;;;;;;5089792;28;20032;-69
2022/12/30 10:54:45;;;;;;;21.98;14.90;;;436.00;1689.60;;;;;;5091913;28;20017;-64
2022/12/30 10:57:22;;;;;;;11.27;8.13;;;436.10;1715.20;;;;;;5093551;28;20107;-75
2022/12/30 10:59:49;;;;;;;21.13;13.70;;;460.80;1740.80;;;;;;5093846;28;20017;-61
2022/12/30 11:02:35;;;;;;;8.98;6.28;;;460.90;1715.20;;;;;;5093444;28;20128;-61
2022/12/30 11:05:02;;;;;;;72.50;49.30;;;461.00;1715.20;;;;;;5093200;28;20027;-61
2022/12/30 11:07:28;;;;;;;11.38;6.78;;;460.90;1715.20;;;;;;5093339;28;20036;-75
2022/12/30 11:09:54;;;;;;;5.20;3.60;;;460.90;1740.80;;;;;;5093154;28;20397;-62
2022/12/30 11:15:21;;;;;;;10.40;7.95;;;460.90;1715.20;;;;;;5093604;28;20397;-64
2022/12/30 11:17:48;;;;;;;20.52;18.27;;;460.90;1715.20;;;;;;5093540;28;20481;-61
2022/12/30 11:20:14;;;;;;;9.25;7.57;;;460.90;1715.20;;;;;;5092932;28;20032;-59
2022/12/30 11:23:20;;;;;;;15.55;10.23;;;460.90;1715.20;;;;;;5092963;28;20023;-60
2022/12/30 11:25:46;;;;;;;10.32;6.93;;;461.00;1715.20;;;;;;5093072;28;20047;-62
2022/12/30 11:28:22;;;;;;;11.82;9.93;;;460.90;1689.60;;;;;;5092818;28;20020;-60
2022/12/30 11:30:51;;;;;;;9.60;7.50;;;460.90;1715.20;;;;;;5093268;28;20028;-67
2022/12/30 11:33:24;;;;;;;10.50;7.63;;;460.90;1689.60;;;;;;5090065;28;20127;-62
2022/12/30 11:35:51;;;;;;;18.35;13.18;;;461.00;1664.00;;;;;;5090915;28;20024;-67
2022/12/30 11:38:33;;;;;;;20.90;14.57;;;461.20;1689.60;;;;;;5091251;28;20032;-64
2022/12/30 11:41:24;;;;;;;12.90;7.93;;;461.20;1689.60;;;;;;5091000;28;20108;-67
2022/12/30 11:44:04;;;;;;;17.25;10.98;;;461.10;1715.20;;;;;;5090433;28;20510;-68
2022/12/30 11:46:38;;;;;;;9.57;7.25;;;461.00;1689.60;;;;;;5088715;28;20024;-69
2022/12/30 11:49:26;;;;;;;5.10;3.13;;;460.80;1689.60;;;;;;5087314;28;20109;-74
2022/12/30 11:52:07;;;;;;;9.60;7.22;;;436.10;1689.60;;;;;;5087224;28;20504;-75
2022/12/30 11:54:40;;;;;;;9.13;7.43;;;436.10;1689.60;;;;;;5087973;28;20020;-74
2022/12/30 11:57:19;;;;;;;5.55;3.65;;;436.10;1689.60;;;;;;5088305;28;20031;-74
2022/12/30 11:59:47;;;;;;;7.07;4.63;;;435.90;1689.60;;;;;;5087863;28;20032;-63
2022/12/30 12:02:23;;;;;;;6.60;4.68;;;435.90;1689.60;;;;;;5087668;28;20024;-63
2022/12/30 12:04:49;;;;;;;6.10;3.72;;;435.90;1689.60;;;;;;5087963;28;20490;-72
2022/12/30 12:07:17;;;;;;;19.05;13.40;;;435.90;1715.20;;;;;;5088961;28;20490;-70
2022/12/30 12:09:51;;;;;;;13.32;8.38;;;435.90;1715.20;;;;;;5089495;28;20067;-74
2022/12/30 12:12:20;;;;;;;12.10;8.15;;;435.80;1715.20;;;;;;5087157;28;20036;-75
2022/12/30 12:15:04;;;;;;;19.30;13.43;;;435.80;1715.20;;;;;;5089554;28;20032;-71
2022/12/30 12:17:55;;;;;;;18.42;13.35;;;435.80;1689.60;;;;;;5088983;28;20043;-71
2022/12/30 12:20:32;;;;;;;8.13;5.72;;;435.70;1689.60;;;;;;5089194;28;20535;-65
2022/12/30 12:23:18;;;;;;;16.38;13.82;;;435.80;1689.60;;;;;;5089111;28;20034;-61
2022/12/30 12:25:52;;;;;;;15.70;13.65;;;435.80;1664.00;;;;;;5088672;28;20055;-64
2022/12/30 12:28:18;;;;;;;9.88;7.50;;;435.80;1689.60;;;;;;5089387;28;20048;-75
2022/12/30 12:31:07;;;;;;;4.53;3.17;;;435.80;1689.60;;;;;;5089182;28;20055;-62
2022/12/30 12:33:38;;;;;;;23.40;15.10;;;435.80;1689.60;;;;;;5025756;28;20099;-74
2022/12/30 12:36:23;;;;;;;31.55;18.58;;;435.80;1715.20;;;;;;5026431;28;20109;-66
2022/12/30 12:39:12;;;;;;;36.80;23.42;;;435.80;1689.60;;;;;;5026390;28;20063;-70
2022/12/30 12:42:00;;;;;;;9.43;5.63;;;435.80;1689.60;;;;;;5010720;28;20112;-65
2022/12/30 12:44:41;;;;;;;5.35;3.97;;;435.80;1715.20;;;;;;5024596;28;20041;-73
2022/12/30 12:47:12;;;;;;;60.10;44.42;;;435.70;1715.20;;;;;;5024945;28;20033;-64
2022/12/30 12:49:51;;;;;;;76.63;55.75;;;435.80;1689.60;;;;;;5024757;28;20017;-65
2022/12/30 12:52:50;;;;;;;43.75;27.83;;;435.80;1689.60;;;;;;5024389;28;20037;-70
2022/12/30 12:55:19;;;;;;;31.65;24.02;;;435.80;1715.20;;;;;;5024046;28;20029;-71
2022/12/30 12:58:03;;;;;;;31.35;20.65;;;435.80;1715.20;;;;;;5024449;28;20041;-67
2022/12/30 13:00:41;;;;;;;38.38;24.23;;;435.80;1715.20;;;;;;5024439;28;20029;-72
2022/12/30 13:03:17;;;;;;;9.65;7.32;;;435.80;1715.20;;;;;;5023685;28;20028;-75
2022/12/30 13:06:03;;;;;;;25.63;19.58;;;435.80;1740.80;;;;;;5024263;28;20120;-71
2022/12/30 13:08:57;;;;;;;55.92;45.63;;;435.80;1740.80;;;;;;5023201;28;20033;-76
2022/12/30 13:11:36;;;;;;;20.77;15.13;;;435.80;1715.20;;;;;;5073352;28;20032;-65
2022/12/30 13:14:17;;;;;;;57.33;50.42;;;435.70;1715.20;;;;;;5086520;28;20033;-66
2022/12/30 13:16:46;;;;;;;118.40;88.60;;;435.60;1740.80;;;;;;5086510;28;20107;-70